sensor_id;sensor_type;location;lat;lon;timestamp;P1;durP1;ratioP1;P2;durP2;ratioP2
34557;SDS011;24708;48.888;8.736;2023-04-07T05:31:20;9.85;;;5.53;;
34557;SDS011;24708;48.888;8.736;2023-04-07T05:33:48;12.48;;;6.03;;
34557;SDS011;24708;48.888;8.736;2023-04-07T05:36:16;9.27;;;4.93;;
34557;SDS011;24708;48.888;8.736;2023-04-07T05:38:44;8.32;;;4.65;;
34557;SDS011;24708;48.888;8.736;2023-04-07T05:41:12;7.45;;;5.25;;
34557;SDS011;24708;48.888;8.736;2023-04-07T05:43:39;9.75;;;5.43;;
34557;SDS011;24708;48.888;8.736;2023-04-07T05:46:06;6.72;;;4.65;;
34557;SDS011;24708;48.888;8.736;2023-04-07T05:48:34;9.27;;;5.18;;
34557;SDS011;24708;48.888;8.736;2023-04-07T05:51:01;19.17;;;6.60;;
34557;SDS011;24708;48.888;8.736;2023-04-07T05:53:28;8.85;;;5.70;;
34557;SDS011;24708;48.888;8.736;2023-04-07T05:55:56;8.63;;;5.15;;
34557;SDS011;24708;48.888;8.736;2023-04-07T05:58:23;10.25;;;4.85;;
34557;SDS011;24708;48.888;8.736;2023-04-07T06:00:50;9.82;;;6.05;;
34557;SDS011;24708;48.888;8.736;2023-04-07T06:03:17;7.75;;;5.25;;
34557;SDS011;24708;48.888;8.736;2023-04-07T06:05:45;12.88;;;6.18;;
34557;SDS011;24708;48.888;8.736;2023-04-07T06:08:12;9.55;;;5.78;;
34557;SDS011;24708;48.888;8.736;2023-04-07T06:10:40;10.15;;;4.95;;
34557;SDS011;24708;48.888;8.736;2023-04-07T06:13:07;6.75;;;4.88;;
34557;SDS011;24708;48.888;8.736;2023-04-07T06:15:34;7.35;;;3.88;;
34557;SDS011;24708;48.888;8.736;2023-04-07T06:18:02;6.78;;;4.03;;
34557;SDS011;24708;48.888;8.736;2023-04-07T06:20:29;5.95;;;3.92;;
34557;SDS011;24708;48.888;8.736;2023-04-07T06:22:56;7.78;;;4.03;;
34557;SDS011;24708;48.888;8.736;2023-04-07T06:25:23;6.93;;;4.65;;
34557;SDS011;24708;48.888;8.736;2023-04-07T06:27:52;6.88;;;4.38;;
34557;SDS011;24708;48.888;8.736;2023-04-07T06:30:19;5.43;;;3.97;;
34557;SDS011;24708;48.888;8.736;2023-04-07T06:32:46;7.32;;;4.53;;
34557;SDS011;24708;48.888;8.736;2023-04-07T06:35:14;9.65;;;4.55;;
34557;SDS011;24708;48.888;8.736;2023-04-07T06:37:41;10.05;;;5.15;;
34557;SDS011;24708;48.888;8.736;2023-04-07T06:40:08;12.15;;;4.40;;
34557;SDS011;24708;48.888;8.736;2023-04-07T06:42:36;5.90;;;4.75;;
34557;SDS011;24708;48.888;8.736;2023-04-07T06:45:03;6.55;;;4.22;;
34557;SDS011;24708;48.888;8.736;2023-04-07T06:47:31;8.43;;;4.30;;
34557;SDS011;24708;48.888;8.736;2023-04-07T06:49:58;12.20;;;3.35;;
34557;SDS011;24708;48.888;8.736;2023-04-07T06:52:25;6.90;;;3.50;;
34557;SDS011;24708;48.888;8.736;2023-04-07T06:54:53;6.35;;;3.45;;
34557;SDS011;24708;48.888;8.736;2023-04-07T06:57:20;4.80;;;3.17;;
34557;SDS011;24708;48.888;8.736;2023-04-07T06:59:47;5.93;;;3.95;;
34557;SDS011;24708;48.888;8.736;2023-04-07T07:02:14;5.65;;;3.53;;
34557;SDS011;24708;48.888;8.736;2023-04-07T07:04:42;6.10;;;3.35;;
34557;SDS011;24708;48.888;8.736;2023-04-07T07:07:12;6.05;;;3.42;;
34557;SDS011;24708;48.888;8.736;2023-04-07T07:09:39;5.32;;;3.72;;
34557;SDS011;24708;48.888;8.736;2023-04-07T07:12:06;5.60;;;3.33;;
34557;SDS011;24708;48.888;8.736;2023-04-07T07:14:34;5.55;;;3.45;;
34557;SDS011;24708;48.888;8.736;2023-04-07T07:17:01;11.05;;;3.50;;
34557;SDS011;24708;48.888;8.736;2023-04-07T07:19:28;5.03;;;2.88;;
34557;SDS011;24708;48.888;8.736;2023-04-07T07:21:55;4.95;;;2.95;;
34557;SDS011;24708;48.888;8.736;2023-04-07T07:24:22;4.72;;;2.75;;
34557;SDS011;24708;48.888;8.736;2023-04-07T07:26:49;4.60;;;2.95;;
34557;SDS011;24708;48.888;8.736;2023-04-07T07:29:17;3.65;;;2.47;;
34557;SDS011;24708;48.888;8.736;2023-04-07T07:31:44;4.53;;;3.17;;
34557;SDS011;24708;48.888;8.736;2023-04-07T07:34:11;8.88;;;2.50;;
34557;SDS011;24708;48.888;8.736;2023-04-07T07:36:38;6.88;;;2.85;;
34557;SDS011;24708;48.888;8.736;2023-04-07T07:39:05;7.13;;;2.70;;
34557;SDS011;24708;48.888;8.736;2023-04-07T07:41:33;3.60;;;2.33;;
34557;SDS011;24708;48.888;8.736;2023-04-07T07:44:01;4.72;;;2.47;;
34557;SDS011;24708;48.888;8.736;2023-04-07T07:46:28;2.80;;;1.67;;
34557;SDS011;24708;48.888;8.736;2023-04-07T07:48:55;4.07;;;1.75;;
34557;SDS011;24708;48.888;8.736;2023-04-07T07:51:22;2.50;;;1.67;;
34557;SDS011;24708;48.888;8.736;2023-04-07T07:53:50;1.73;;;1.15;;
34557;SDS011;24708;48.888;8.736;2023-04-07T07:56:18;1.85;;;0.93;;
34557;SDS011;24708;48.888;8.736;2023-04-07T07:58:45;9.57;;;2.20;;
34557;SDS011;24708;48.888;8.736;2023-04-07T08:01:12;2.35;;;1.02;;
34557;SDS011;24708;48.888;8.736;2023-04-07T08:03:40;4.63;;;1.13;;
34557;SDS011;24708;48.888;8.736;2023-04-07T08:06:07;2.50;;;0.90;;
34557;SDS011;24708;48.888;8.736;2023-04-07T08:08:35;5.63;;;0.90;;
34557;SDS011;24708;48.888;8.736;2023-04-07T08:11:02;8.07;;;1.20;;
34557;SDS011;24708;48.888;8.736;2023-04-07T08:13:30;2.28;;;1.20;;
34557;SDS011;24708;48.888;8.736;2023-04-07T08:15:57;4.13;;;1.20;;
34557;SDS011;24708;48.888;8.736;2023-04-07T08:18:24;3.85;;;2.25;;
34557;SDS011;24708;48.888;8.736;2023-04-07T08:20:51;3.33;;;1.60;;
34557;SDS011;24708;48.888;8.736;2023-04-07T08:23:19;3.67;;;1.50;;
34557;SDS011;24708;48.888;8.736;2023-04-07T08:25:46;4.88;;;2.42;;
34557;SDS011;24708;48.888;8.736;2023-04-07T08:28:13;2.45;;;1.60;;
34557;SDS011;24708;48.888;8.736;2023-04-07T08:30:41;11.32;;;2.08;;
34557;SDS011;24708;48.888;8.736;2023-04-07T08:33:08;2.92;;;1.38;;
34557;SDS011;24708;48.888;8.736;2023-04-07T08:35:36;3.38;;;1.40;;
34557;SDS011;24708;48.888;8.736;2023-04-07T08:38:03;2.70;;;1.38;;
34557;SDS011;24708;48.888;8.736;2023-04-07T08:40:31;3.50;;;1.63;;
34557;SDS011;24708;48.888;8.736;2023-04-07T08:42:59;5.50;;;1.08;;
34557;SDS011;24708;48.888;8.736;2023-04-07T08:45:31;2.92;;;1.25;;
34557;SDS011;24708;48.888;8.736;2023-04-07T08:48:00;1.75;;;0.90;;
34557;SDS011;24708;48.888;8.736;2023-04-07T08:50:34;10.93;;;1.00;;
34557;SDS011;24708;48.888;8.736;2023-04-07T08:53:01;2.65;;;1.15;;
34557;SDS011;24708;48.888;8.736;2023-04-07T08:55:34;2.00;;;0.88;;
34557;SDS011;24708;48.888;8.736;2023-04-07T08:58:02;2.60;;;1.30;;
34557;SDS011;24708;48.888;8.736;2023-04-07T09:00:29;3.63;;;1.48;;
34557;SDS011;24708;48.888;8.736;2023-04-07T09:02:57;1.52;;;1.08;;
34557;SDS011;24708;48.888;8.736;2023-04-07T09:05:26;1.55;;;0.93;;
34557;SDS011;24708;48.888;8.736;2023-04-07T09:07:55;2.08;;;1.00;;
34557;SDS011;24708;48.888;8.736;2023-04-07T09:10:22;2.88;;;0.75;;
34557;SDS011;24708;48.888;8.736;2023-04-07T09:12:49;1.25;;;0.63;;
34557;SDS011;24708;48.888;8.736;2023-04-07T09:15:16;1.40;;;0.75;;
34557;SDS011;24708;48.888;8.736;2023-04-07T09:17:44;2.63;;;0.80;;
34557;SDS011;24708;48.888;8.736;2023-04-07T09:20:11;2.72;;;1.30;;
34557;SDS011;24708;48.888;8.736;2023-04-07T09:22:42;3.83;;;1.13;;
34557;SDS011;24708;48.888;8.736;2023-04-07T09:25:22;4.47;;;1.35;;
34557;SDS011;24708;48.888;8.736;2023-04-07T09:27:57;4.00;;;0.98;;
34557;SDS011;24708;48.888;8.736;2023-04-07T09:30:26;2.45;;;1.02;;
34557;SDS011;24708;48.888;8.736;2023-04-07T09:32:55;2.72;;;1.27;;
34557;SDS011;24708;48.888;8.736;2023-04-07T09:35:23;3.92;;;1.35;;
34557;SDS011;24708;48.888;8.736;2023-04-07T09:38:06;4.75;;;1.48;;
34557;SDS011;24708;48.888;8.736;2023-04-07T09:40:35;3.10;;;1.42;;
34557;SDS011;24708;48.888;8.736;2023-04-07T09:43:03;2.30;;;1.45;;
34557;SDS011;24708;48.888;8.736;2023-04-07T09:45:31;3.40;;;1.33;;
34557;SDS011;24708;48.888;8.736;2023-04-07T09:48:18;2.53;;;1.55;;
34557;SDS011;24708;48.888;8.736;2023-04-07T09:50:47;7.13;;;1.92;;
34557;SDS011;24708;48.888;8.736;2023-04-07T09:53:17;5.45;;;1.67;;
34557;SDS011;24708;48.888;8.736;2023-04-07T09:55:45;2.03;;;1.17;;
34557;SDS011;24708;48.888;8.736;2023-04-07T09:58:14;3.03;;;1.17;;
34557;SDS011;24708;48.888;8.736;2023-04-07T10:00:42;1.83;;;0.85;;
34557;SDS011;24708;48.888;8.736;2023-04-07T10:03:11;4.18;;;1.27;;
34557;SDS011;24708;48.888;8.736;2023-04-07T10:05:39;1.70;;;1.35;;
34557;SDS011;24708;48.888;8.736;2023-04-07T10:08:06;3.88;;;1.52;;
34557;SDS011;24708;48.888;8.736;2023-04-07T10:10:35;4.88;;;1.15;;
34557;SDS011;24708;48.888;8.736;2023-04-07T10:15:35;2.20;;;1.08;;
34557;SDS011;24708;48.888;8.736;2023-04-07T10:18:03;3.28;;;1.30;;
34557;SDS011;24708;48.888;8.736;2023-04-07T10:20:33;4.70;;;1.20;;
34557;SDS011;24708;48.888;8.736;2023-04-07T10:23:01;5.47;;;1.52;;
34557;SDS011;24708;48.888;8.736;2023-04-07T10:25:37;3.13;;;1.27;;
34557;SDS011;24708;48.888;8.736;2023-04-07T10:28:06;1.83;;;1.50;;
34557;SDS011;24708;48.888;8.736;2023-04-07T10:30:38;4.60;;;1.80;;
34557;SDS011;24708;48.888;8.736;2023-04-07T10:33:06;3.15;;;1.23;;
34557;SDS011;24708;48.888;8.736;2023-04-07T10:38:29;3.47;;;1.80;;
34557;SDS011;24708;48.888;8.736;2023-04-07T10:40:57;5.40;;;2.30;;
34557;SDS011;24708;48.888;8.736;2023-04-07T10:43:37;3.03;;;1.85;;
34557;SDS011;24708;48.888;8.736;2023-04-07T10:46:07;4.05;;;1.73;;
34557;SDS011;24708;48.888;8.736;2023-04-07T10:48:35;7.28;;;2.10;;
34557;SDS011;24708;48.888;8.736;2023-04-07T10:53:32;3.65;;;2.33;;
34557;SDS011;24708;48.888;8.736;2023-04-07T10:56:00;8.13;;;1.98;;
34557;SDS011;24708;48.888;8.736;2023-04-07T10:58:28;5.78;;;1.67;;
34557;SDS011;24708;48.888;8.736;2023-04-07T11:03:27;6.40;;;2.33;;
34557;SDS011;24708;48.888;8.736;2023-04-07T11:06:03;2.72;;;1.85;;
34557;SDS011;24708;48.888;8.736;2023-04-07T11:08:32;5.93;;;1.42;;
34557;SDS011;24708;48.888;8.736;2023-04-07T11:11:04;7.13;;;2.25;;
34557;SDS011;24708;48.888;8.736;2023-04-07T11:13:41;3.72;;;1.42;;
34557;SDS011;24708;48.888;8.736;2023-04-07T11:16:17;4.30;;;1.52;;
34557;SDS011;24708;48.888;8.736;2023-04-07T11:18:45;4.32;;;1.52;;
34557;SDS011;24708;48.888;8.736;2023-04-07T11:21:17;6.35;;;1.73;;
34557;SDS011;24708;48.888;8.736;2023-04-07T11:23:45;1.60;;;1.25;;
34557;SDS011;24708;48.888;8.736;2023-04-07T11:26:14;5.00;;;2.40;;
34557;SDS011;24708;48.888;8.736;2023-04-07T11:28:59;8.10;;;1.58;;
34557;SDS011;24708;48.888;8.736;2023-04-07T11:31:28;6.88;;;1.63;;
34557;SDS011;24708;48.888;8.736;2023-04-07T11:33:58;6.40;;;1.38;;
34557;SDS011;24708;48.888;8.736;2023-04-07T11:38:58;5.63;;;1.75;;
34557;SDS011;24708;48.888;8.736;2023-04-07T11:41:29;7.50;;;1.60;;
34557;SDS011;24708;48.888;8.736;2023-04-07T11:44:08;3.05;;;1.38;;
34557;SDS011;24708;48.888;8.736;2023-04-07T11:46:56;6.85;;;1.80;;
34557;SDS011;24708;48.888;8.736;2023-04-07T11:49:29;3.20;;;1.52;;
34557;SDS011;24708;48.888;8.736;2023-04-07T11:52:04;5.88;;;1.80;;
34557;SDS011;24708;48.888;8.736;2023-04-07T11:54:44;5.18;;;1.65;;
34557;SDS011;24708;48.888;8.736;2023-04-07T11:57:13;4.07;;;2.63;;
34557;SDS011;24708;48.888;8.736;2023-04-07T11:59:40;6.15;;;1.70;;
34557;SDS011;24708;48.888;8.736;2023-04-07T12:02:07;3.60;;;1.42;;
34557;SDS011;24708;48.888;8.736;2023-04-07T12:04:36;3.83;;;1.35;;
34557;SDS011;24708;48.888;8.736;2023-04-07T12:07:06;12.38;;;1.52;;
34557;SDS011;24708;48.888;8.736;2023-04-07T12:09:35;1.75;;;1.58;;
34557;SDS011;24708;48.888;8.736;2023-04-07T12:12:03;5.70;;;1.58;;
34557;SDS011;24708;48.888;8.736;2023-04-07T12:14:33;5.03;;;1.83;;
34557;SDS011;24708;48.888;8.736;2023-04-07T12:17:01;3.95;;;1.38;;
34557;SDS011;24708;48.888;8.736;2023-04-07T12:19:30;5.60;;;1.55;;
34557;SDS011;24708;48.888;8.736;2023-04-07T12:22:00;11.57;;;2.20;;
34557;SDS011;24708;48.888;8.736;2023-04-07T12:24:27;6.53;;;1.77;;
34557;SDS011;24708;48.888;8.736;2023-04-07T12:26:54;6.03;;;2.78;;
34557;SDS011;24708;48.888;8.736;2023-04-07T12:29:22;7.70;;;1.55;;
34557;SDS011;24708;48.888;8.736;2023-04-07T12:31:49;10.15;;;2.53;;
34557;SDS011;24708;48.888;8.736;2023-04-07T12:34:17;7.55;;;2.25;;
34557;SDS011;24708;48.888;8.736;2023-04-07T12:36:44;9.30;;;2.15;;
34557;SDS011;24708;48.888;8.736;2023-04-07T12:39:11;2.08;;;1.73;;
34557;SDS011;24708;48.888;8.736;2023-04-07T12:41:39;1.85;;;1.40;;
34557;SDS011;24708;48.888;8.736;2023-04-07T12:44:07;3.33;;;1.40;;
34557;SDS011;24708;48.888;8.736;2023-04-07T12:46:35;2.85;;;1.63;;
34557;SDS011;24708;48.888;8.736;2023-04-07T12:49:02;5.05;;;2.05;;
34557;SDS011;24708;48.888;8.736;2023-04-07T12:51:29;3.15;;;1.70;;
34557;SDS011;24708;48.888;8.736;2023-04-07T12:53:59;3.60;;;1.95;;
34557;SDS011;24708;48.888;8.736;2023-04-07T12:56:26;4.32;;;1.80;;
34557;SDS011;24708;48.888;8.736;2023-04-07T12:58:54;6.15;;;1.83;;
34557;SDS011;24708;48.888;8.736;2023-04-07T13:01:21;5.47;;;2.00;;
34557;SDS011;24708;48.888;8.736;2023-04-07T13:03:49;5.50;;;2.10;;
34557;SDS011;24708;48.888;8.736;2023-04-07T13:06:17;5.20;;;1.73;;
34557;SDS011;24708;48.888;8.736;2023-04-07T13:08:44;4.30;;;2.17;;
34557;SDS011;24708;48.888;8.736;2023-04-07T13:11:12;6.00;;;1.92;;
34557;SDS011;24708;48.888;8.736;2023-04-07T13:13:39;18.92;;;2.35;;
34557;SDS011;24708;48.888;8.736;2023-04-07T13:16:06;6.18;;;2.30;;
34557;SDS011;24708;48.888;8.736;2023-04-07T13:18:33;4.60;;;2.15;;
34557;SDS011;24708;48.888;8.736;2023-04-07T13:21:02;4.75;;;2.88;;
34557;SDS011;24708;48.888;8.736;2023-04-07T13:23:32;4.95;;;2.00;;
34557;SDS011;24708;48.888;8.736;2023-04-07T13:26:09;8.43;;;2.40;;
34557;SDS011;24708;48.888;8.736;2023-04-07T13:28:37;5.70;;;2.55;;
34557;SDS011;24708;48.888;8.736;2023-04-07T13:31:04;5.72;;;2.40;;
34557;SDS011;24708;48.888;8.736;2023-04-07T13:33:33;6.45;;;2.42;;
34557;SDS011;24708;48.888;8.736;2023-04-07T13:36:00;9.90;;;2.50;;
34557;SDS011;24708;48.888;8.736;2023-04-07T13:38:27;2.63;;;2.13;;
34557;SDS011;24708;48.888;8.736;2023-04-07T13:40:54;4.43;;;2.40;;
34557;SDS011;24708;48.888;8.736;2023-04-07T13:43:22;4.22;;;3.40;;
34557;SDS011;24708;48.888;8.736;2023-04-07T13:45:49;6.07;;;2.72;;
34557;SDS011;24708;48.888;8.736;2023-04-07T13:48:16;3.85;;;2.33;;
34557;SDS011;24708;48.888;8.736;2023-04-07T13:50:43;3.65;;;2.40;;
34557;SDS011;24708;48.888;8.736;2023-04-07T13:53:11;5.30;;;2.50;;
34557;SDS011;24708;48.888;8.736;2023-04-07T13:55:38;7.95;;;2.80;;
34557;SDS011;24708;48.888;8.736;2023-04-07T13:58:05;6.15;;;2.25;;
34557;SDS011;24708;48.888;8.736;2023-04-07T14:00:32;5.80;;;2.95;;
34557;SDS011;24708;48.888;8.736;2023-04-07T14:03:01;5.82;;;1.90;;
34557;SDS011;24708;48.888;8.736;2023-04-07T14:05:30;8.75;;;2.55;;
34557;SDS011;24708;48.888;8.736;2023-04-07T14:07:57;5.60;;;2.55;;
34557;SDS011;24708;48.888;8.736;2023-04-07T14:10:24;6.95;;;2.47;;
34557;SDS011;24708;48.888;8.736;2023-04-07T14:12:51;4.25;;;2.17;;
34557;SDS011;24708;48.888;8.736;2023-04-07T14:15:18;5.13;;;2.88;;
34557;SDS011;24708;48.888;8.736;2023-04-07T14:17:46;4.80;;;2.40;;
34557;SDS011;24708;48.888;8.736;2023-04-07T14:20:13;5.30;;;2.72;;
34557;SDS011;24708;48.888;8.736;2023-04-07T14:22:40;7.68;;;2.83;;
34557;SDS011;24708;48.888;8.736;2023-04-07T14:25:08;7.15;;;2.53;;
34557;SDS011;24708;48.888;8.736;2023-04-07T14:27:36;3.95;;;2.30;;
34557;SDS011;24708;48.888;8.736;2023-04-07T14:30:03;3.33;;;2.20;;
34557;SDS011;24708;48.888;8.736;2023-04-07T14:32:31;3.20;;;1.95;;
34557;SDS011;24708;48.888;8.736;2023-04-07T14:35:00;3.30;;;1.90;;
34557;SDS011;24708;48.888;8.736;2023-04-07T14:37:27;2.65;;;1.67;;
34557;SDS011;24708;48.888;8.736;2023-04-07T14:39:55;4.95;;;2.00;;
34557;SDS011;24708;48.888;8.736;2023-04-07T14:42:26;1.50;;;1.40;;
34557;SDS011;24708;48.888;8.736;2023-04-07T14:44:55;4.43;;;1.67;;
34557;SDS011;24708;48.888;8.736;2023-04-07T14:47:22;2.92;;;1.73;;
34557;SDS011;24708;48.888;8.736;2023-04-07T14:49:50;5.28;;;1.38;;
34557;SDS011;24708;48.888;8.736;2023-04-07T14:52:19;1.35;;;1.23;;
34557;SDS011;24708;48.888;8.736;2023-04-07T14:54:50;2.65;;;1.48;;
34557;SDS011;24708;48.888;8.736;2023-04-07T14:57:17;1.48;;;1.00;;
34557;SDS011;24708;48.888;8.736;2023-04-07T14:59:44;2.13;;;1.35;;
34557;SDS011;24708;48.888;8.736;2023-04-07T15:02:12;0.98;;;0.90;;
34557;SDS011;24708;48.888;8.736;2023-04-07T15:04:40;2.83;;;1.67;;
34557;SDS011;24708;48.888;8.736;2023-04-07T15:07:07;1.75;;;0.95;;
34557;SDS011;24708;48.888;8.736;2023-04-07T15:09:34;2.65;;;1.60;;
34557;SDS011;24708;48.888;8.736;2023-04-07T15:12:01;2.78;;;1.77;;
34557;SDS011;24708;48.888;8.736;2023-04-07T15:14:30;2.67;;;1.20;;
34557;SDS011;24708;48.888;8.736;2023-04-07T15:16:57;1.55;;;1.02;;
34557;SDS011;24708;48.888;8.736;2023-04-07T15:19:24;4.93;;;1.23;;
34557;SDS011;24708;48.888;8.736;2023-04-07T15:21:52;1.83;;;1.58;;
34557;SDS011;24708;48.888;8.736;2023-04-07T15:24:19;2.78;;;1.50;;
34557;SDS011;24708;48.888;8.736;2023-04-07T15:26:48;2.35;;;1.33;;
34557;SDS011;24708;48.888;8.736;2023-04-07T15:29:15;3.58;;;1.40;;
34557;SDS011;24708;48.888;8.736;2023-04-07T15:31:42;2.10;;;1.63;;
34557;SDS011;24708;48.888;8.736;2023-04-07T15:34:09;5.60;;;1.60;;
34557;SDS011;24708;48.888;8.736;2023-04-07T15:36:38;3.53;;;2.45;;
34557;SDS011;24708;48.888;8.736;2023-04-07T15:39:05;10.00;;;2.83;;
34557;SDS011;24708;48.888;8.736;2023-04-07T15:41:33;5.05;;;1.88;;
34557;SDS011;24708;48.888;8.736;2023-04-07T15:44:00;8.55;;;2.35;;
34557;SDS011;24708;48.888;8.736;2023-04-07T15:46:28;3.08;;;1.60;;
34557;SDS011;24708;48.888;8.736;2023-04-07T15:48:58;2.90;;;2.42;;
34557;SDS011;24708;48.888;8.736;2023-04-07T15:51:25;2.85;;;1.80;;
34557;SDS011;24708;48.888;8.736;2023-04-07T15:53:53;1.80;;;1.50;;
34557;SDS011;24708;48.888;8.736;2023-04-07T15:56:20;2.40;;;1.73;;
34557;SDS011;24708;48.888;8.736;2023-04-07T15:58:50;3.58;;;1.70;;
